Time;durP1;ratioP1;P1;durP2;ratioP2;P2;SDS_P1;SDS_P2;PMS_P1;PMS_P2;Temp;Humidity;BMP_temperature;BMP_pressure;BME280_temperature;BME280_humidity;BME280_pressure;Samples;Min_cycle;Max_cycle;Signal;HPM_P1;HPM_P2
2022/05/02 00:02:08;;;;;;;;;;;;;;;7.46;100.00;102180.09;2611871;36;19954;-50
2022/05/02 00:04:36;;;;;;;;;;;;;;;7.35;100.00;102178.84;2612074;36;19954;-49
2022/05/02 00:07:07;;;;;;;;;;;;;;;7.36;100.00;102191.31;2612048;36;20073;-48
2022/05/02 00:09:34;;;;;;;;;;;;;;;7.31;100.00;102182.66;2611930;36;19950;-48
2022/05/02 00:12:02;;;;;;;;;;;;;;;7.28;100.00;102187.31;2612002;36;20037;-48
2022/05/02 00:14:30;;;;;;;;;;;;;;;7.10;100.00;102189.16;2611735;31;20570;-51
2022/05/02 00:16:58;;;;;;;;;;;;;;;7.16;100.00;102183.47;2612241;31;20014;-50
2022/05/02 00:19:26;;;;;;;;;;;;;;;7.22;100.00;102183.16;2611908;36;20025;-49
2022/05/02 00:21:54;;;;;;;;;;;;;;;7.12;100.00;102180.06;2611826;36;20076;-51
2022/05/02 00:24:25;;;;;;;;;;;;;;;7.16;100.00;102178.13;2611579;31;20078;-55
2022/05/02 00:26:53;;;;;;;;;;;;;;;7.10;100.00;102175.78;2611949;31;19946;-53
2022/05/02 00:29:21;;;;;;;;;;;;;;;7.05;100.00;102175.13;2611886;36;19950;-53
2022/05/02 00:31:49;;;;;;;;;;;;;;;6.95;100.00;102164.03;2611851;36;20136;-53
2022/05/02 00:34:17;;;;;;;;;;;;;;;6.88;100.00;102166.19;2611794;36;19954;-49
2022/05/02 00:36:46;;;;;;;;;;;;;;;6.81;100.00;102165.63;2611710;36;19946;-50
2022/05/02 00:39:14;;;;;;;;;;;;;;;6.76;100.00;102166.84;2611721;36;20034;-48
2022/05/02 00:41:44;;;;;;;;;;;;;;;6.66;100.00;102166.44;2611290;36;20057;-50
2022/05/02 00:44:12;;;;;;;;;;;;;;;6.57;100.00;102165.09;2611236;36;19950;-53
2022/05/02 00:46:41;;;;;;;;;;;;;;;6.47;100.00;102161.16;2611742;36;19955;-50
2022/05/02 00:49:09;;;;;;;;;;;;;;;6.43;100.00;102170.25;2611725;36;20081;-54
2022/05/02 00:51:37;;;;;;;;;;;;;;;6.30;100.00;102165.53;2611769;36;19946;-55
2022/05/02 00:54:05;;;;;;;;;;;;;;;6.27;100.00;102163.03;2611299;31;20073;-49
2022/05/02 00:56:34;;;;;;;;;;;;;;;6.23;100.00;102166.78;2611963;36;19946;-55
2022/05/02 00:59:05;;;;;;;;;;;;;;;6.16;100.00;102160.00;2612244;36;19957;-55
2022/05/02 01:01:34;;;;;;;;;;;;;;;5.97;100.00;102160.88;2612259;31;20045;-55
2022/05/02 01:04:02;;;;;;;;;;;;;;;5.95;100.00;102161.88;2612195;36;20042;-53
2022/05/02 01:09:10;;;;;;;;;;;;;;;5.95;100.00;102157.41;2605127;36;19969;-53
2022/05/02 01:11:38;;;;;;;;;;;;;;;5.92;100.00;102160.22;2611772;36;19972;-55
2022/05/02 01:14:12;;;;;;;;;;;;;;;5.88;100.00;102155.09;2612072;31;19985;-57
2022/05/02 01:16:40;;;;;;;;;;;;;;;5.87;100.00;102154.22;2611972;36;20038;-56
2022/05/02 01:19:08;;;;;;;;;;;;;;;5.82;100.00;102158.06;2611532;36;20000;-51
2022/05/02 01:21:40;;;;;;;;;;;;;;;5.73;100.00;102162.03;2611702;36;19950;-52
2022/05/02 01:24:08;;;;;;;;;;;;;;;5.74;100.00;102158.41;2611183;36;20076;-49
2022/05/02 01:26:36;;;;;;;;;;;;;;;5.68;100.00;102153.38;2611950;31;20061;-50
2022/05/02 01:29:06;;;;;;;;;;;;;;;5.60;100.00;102156.41;2611781;36;20054;-49
2022/05/02 01:31:34;;;;;;;;;;;;;;;5.55;100.00;102153.97;2612198;36;20430;-50
2022/05/02 01:34:02;;;;;;;;;;;;;;;5.57;100.00;102153.88;2611724;36;19946;-48
2022/05/02 01:36:31;;;;;;;;;;;;;;;5.47;100.00;102150.75;2611714;36;20325;-52
2022/05/02 01:39:01;;;;;;;;;;;;;;;5.47;100.00;102156.09;2612792;36;19950;-50
2022/05/02 01:41:29;;;;;;;;;;;;;;;5.44;100.00;102158.91;2611494;36;20077;-51
2022/05/02 01:43:57;;;;;;;;;;;;;;;5.42;100.00;102155.47;2611478;36;19980;-50
2022/05/02 01:46:25;;;;;;;;;;;;;;;5.32;100.00;102151.50;2611796;36;20630;-48
2022/05/02 01:48:53;;;;;;;;;;;;;;;5.28;100.00;102149.88;2611638;36;20030;-52
2022/05/02 01:51:21;;;;;;;;;;;;;;;5.22;100.00;102149.22;2611235;31;19958;-51
2022/05/02 01:53:49;;;;;;;;;;;;;;;5.14;100.00;102143.38;2611428;36;19950;-52
2022/05/02 01:56:20;;;;;;;;;;;;;;;5.17;100.00;102153.06;2611552;36;19950;-49
2022/05/02 01:58:48;;;;;;;;;;;;;;;5.12;100.00;102142.56;2611977;36;20033;-52
2022/05/02 02:01:16;;;;;;;;;;;;;;;5.09;100.00;102142.69;2611497;36;19947;-53
2022/05/02 02:03:44;;;;;;;;;;;;;;;5.08;100.00;102141.84;2611784;36;19985;-55
2022/05/02 02:06:10;;;;;;;;;;;;;;;5.12;100.00;102144.38;2611265;36;19962;-53
2022/05/02 02:08:38;;;;;;;;;;;;;;;5.13;100.00;102141.63;2611560;36;20291;-56
2022/05/02 02:11:07;;;;;;;;;;;;;;;5.12;100.00;102139.88;2611632;36;19946;-53
2022/05/02 02:13:38;;;;;;;;;;;;;;;5.03;100.00;102145.66;2611973;36;19972;-49
2022/05/02 02:16:09;;;;;;;;;;;;;;;4.96;100.00;102133.50;2611386;36;20069;-47
2022/05/02 02:18:37;;;;;;;;;;;;;;;4.94;100.00;102138.91;2611940;36;20464;-49
2022/05/02 02:21:05;;;;;;;;;;;;;;;4.95;100.00;102132.66;2611644;36;20049;-49
2022/05/02 02:23:34;;;;;;;;;;;;;;;5.00;100.00;102132.44;2611896;36;20351;-48
2022/05/02 02:26:02;;;;;;;;;;;;;;;4.84;100.00;102135.78;2611798;36;19972;-49
2022/05/02 02:28:30;;;;;;;;;;;;;;;4.82;100.00;102128.81;2611454;36;20065;-50
2022/05/02 02:31:00;;;;;;;;;;;;;;;4.80;100.00;102133.31;2612233;31;19946;-52
2022/05/02 02:33:29;;;;;;;;;;;;;;;4.80;100.00;102139.53;2611578;36;19946;-50
2022/05/02 02:35:57;;;;;;;;;;;;;;;4.70;100.00;102127.53;2612498;36;20347;-49
2022/05/02 02:38:25;;;;;;;;;;;;;;;4.69;100.00;102125.78;2611262;36;20435;-53
2022/05/02 02:40:53;;;;;;;;;;;;;;;4.65;100.00;102132.19;2611780;36;19996;-52
2022/05/02 02:43:21;;;;;;;;;;;;;;;4.71;100.00;102126.59;2611459;36;20042;-49
2022/05/02 02:45:49;;;;;;;;;;;;;;;4.67;100.00;102128.53;2611342;36;20041;-51
2022/05/02 02:48:19;;;;;;;;;;;;;;;4.60;100.00;102126.22;2611270;36;19984;-51
2022/05/02 02:50:47;;;;;;;;;;;;;;;4.60;100.00;102123.53;2611726;36;20356;-50
2022/05/02 02:53:15;;;;;;;;;;;;;;;4.55;100.00;102119.25;2611792;36;20466;-50
2022/05/02 02:55:43;;;;;;;;;;;;;;;4.54;100.00;102122.84;2611935;31;20425;-49
2022/05/02 02:58:11;;;;;;;;;;;;;;;4.45;100.00;102112.59;2611874;36;20425;-48
2022/05/02 03:00:39;;;;;;;;;;;;;;;4.43;100.00;102109.13;2611268;36;19993;-50
2022/05/02 03:03:07;;;;;;;;;;;;;;;4.43;100.00;102118.91;2611406;36;19946;-52
2022/05/02 03:08:19;;;;;;;;;;;;;;;4.42;100.00;102112.72;2611474;36;19981;-50
2022/05/02 03:10:47;;;;;;;;;;;;;;;4.37;100.00;102099.59;2610149;36;19957;-54
2022/05/02 03:13:15;;;;;;;;;;;;;;;4.34;100.00;102109.50;2610723;36;19946;-51
2022/05/02 03:15:43;;;;;;;;;;;;;;;4.32;100.00;102103.38;2604866;31;20397;-48
2022/05/02 03:18:11;;;;;;;;;;;;;;;4.31;100.00;102104.31;2611084;36;20424;-48
2022/05/02 03:20:41;;;;;;;;;;;;;;;4.30;100.00;102108.78;2611713;36;20459;-49
2022/05/02 03:23:09;;;;;;;;;;;;;;;4.22;100.00;102105.56;2611156;36;20039;-53
2022/05/02 03:25:37;;;;;;;;;;;;;;;4.19;100.00;102103.88;2611343;36;20022;-49
2022/05/02 03:28:06;;;;;;;;;;;;;;;4.21;100.00;102099.38;2611292;36;20069;-49
2022/05/02 03:30:34;;;;;;;;;;;;;;;4.20;100.00;102104.78;2611095;31;19946;-48
2022/05/02 03:33:02;;;;;;;;;;;;;;;4.19;100.00;102106.56;2611445;31;20471;-49
2022/05/02 03:35:30;;;;;;;;;;;;;;;4.24;100.00;102097.50;2611304;36;19954;-49
2022/05/02 03:38:01;;;;;;;;;;;;;;;4.20;100.00;102102.97;2611274;36;19946;-53
2022/05/02 03:40:29;;;;;;;;;;;;;;;4.14;100.00;102100.56;2611034;36;20037;-50
2022/05/02 03:42:57;;;;;;;;;;;;;;;4.15;100.00;102099.63;2611374;36;19966;-50
2022/05/02 03:45:25;;;;;;;;;;;;;;;4.15;100.00;102099.63;2611556;31;20443;-51
2022/05/02 03:47:53;;;;;;;;;;;;;;;4.15;100.00;102096.09;2611506;36;19953;-49
2022/05/02 03:50:21;;;;;;;;;;;;;;;4.05;100.00;102100.94;2611095;36;19954;-51
2022/05/02 03:52:52;;;;;;;;;;;;;;;4.05;100.00;102103.63;2611167;36;19954;-46
2022/05/02 03:55:22;;;;;;;;;;;;;;;4.04;100.00;102101.88;2612026;31;20377;-53
2022/05/02 03:57:50;;;;;;;;;;;;;;;4.01;100.00;102102.00;2611119;36;20077;-49
2022/05/02 04:00:19;;;;;;;;;;;;;;;4.01;100.00;102100.19;2610798;36;20000;-50
2022/05/02 04:02:47;;;;;;;;;;;;;;;4.02;100.00;102107.25;2611386;31;19947;-49
2022/05/02 04:05:15;;;;;;;;;;;;;;;3.98;100.00;102107.47;2611127;36;20566;-49
2022/05/02 04:07:43;;;;;;;;;;;;;;;4.03;100.00;102102.78;2611216;36;20081;-51
2022/05/02 04:10:11;;;;;;;;;;;;;;;4.02;100.00;102107.25;2610806;36;19947;-53
2022/05/02 04:12:42;;;;;;;;;;;;;;;4.03;100.00;102110.78;2611382;36;20057;-53
2022/05/02 04:15:11;;;;;;;;;;;;;;;4.02;100.00;102103.75;2610758;36;19978;-51
2022/05/02 04:17:40;;;;;;;;;;;;;;;4.03;100.00;102103.69;2611198;36;20038;-50
2022/05/02 04:20:09;;;;;;;;;;;;;;;3.97;100.00;102105.72;2610971;36;20082;-51
2022/05/02 04:22:37;;;;;;;;;;;;;;;3.96;100.00;102111.97;2610874;36;19950;-50
2022/05/02 04:25:06;;;;;;;;;;;;;;;3.97;100.00;102105.72;2611093;36;20063;-50
2022/05/02 04:27:34;;;;;;;;;;;;;;;3.98;100.00;102113.63;2611304;36;20000;-51
2022/05/02 04:30:05;;;;;;;;;;;;;;;4.02;100.00;102109.06;2610838;36;19969;-50
2022/05/02 04:32:33;;;;;;;;;;;;;;;4.06;100.00;102105.31;2612105;31;20045;-55
2022/05/02 04:35:02;;;;;;;;;;;;;;;4.00;100.00;102109.09;2611642;36;20026;-50
2022/05/02 04:37:30;;;;;;;;;;;;;;;4.02;100.00;102115.25;2611487;36;19977;-49
2022/05/02 04:39:58;;;;;;;;;;;;;;;3.99;100.00;102114.50;2611762;36;19969;-52
2022/05/02 04:42:26;;;;;;;;;;;;;;;3.98;100.00;102112.78;2611718;36;19947;-53
2022/05/02 04:44:54;;;;;;;;;;;;;;;3.98;100.00;102113.63;2611938;36;20037;-53
2022/05/02 04:47:25;;;;;;;;;;;;;;;4.07;100.00;102112.41;2611688;36;19998;-54
2022/05/02 04:49:53;;;;;;;;;;;;;;;4.05;100.00;102108.94;2612517;36;20548;-53
2022/05/02 04:52:21;;;;;;;;;;;;;;;4.18;100.00;102104.84;2611913;36;20825;-53
2022/05/02 04:54:49;;;;;;;;;;;;;;;4.18;100.00;102110.16;2611854;36;20053;-52
2022/05/02 04:57:17;;;;;;;;;;;;;;;4.23;100.00;102106.44;2612246;36;19950;-50
2022/05/02 04:59:45;;;;;;;;;;;;;;;4.28;100.00;102115.97;2611693;36;19946;-52
2022/05/02 05:02:13;;;;;;;;;;;;;;;4.33;100.00;102115.78;2611741;36;20588;-49
2022/05/02 05:04:44;;;;;;;;;;;;;;;4.41;100.00;102116.31;2611906;31;19951;-48
2022/05/02 05:07:12;;;;;;;;;;;;;;;4.49;100.00;102116.88;2612055;36;20042;-50
2022/05/02 05:09:40;;;;;;;;;;;;;;;4.59;100.00;102119.13;2611104;36;19976;-53
2022/05/02 05:12:12;;;;;;;;;;;;;;;4.60;100.00;102113.72;2611859;36;20847;-48
2022/05/02 05:17:37;;;;;;;;;;;;;;;4.86;100.00;102112.59;2603823;36;19966;-52
2022/05/02 05:20:11;;;;;;;;;;;;;;;5.01;100.00;102115.50;2611396;36;20049;-49
2022/05/02 05:22:53;;;;;;;;;;;;;;;5.13;100.00;102114.94;2610103;36;19954;-50
2022/05/02 05:25:30;;;;;;;;;;;;;;;5.31;100.00;102123.06;2609627;36;19950;-48
2022/05/02 05:28:04;;;;;;;;;;;;;;;5.42;100.00;102112.75;2610112;36;19947;-55
2022/05/02 05:30:36;;;;;;;;;;;;;;;5.54;100.00;102120.16;2608739;36;19951;-48
2022/05/02 05:33:06;;;;;;;;;;;;;;;5.66;100.00;102112.53;2610151;36;19947;-49
2022/05/02 05:35:52;;;;;;;;;;;;;;;5.79;100.00;102113.66;2610156;36;19956;-49
2022/05/02 05:38:24;;;;;;;;;;;;;;;5.93;100.00;102111.19;2609576;36;19946;-48
2022/05/02 05:40:58;;;;;;;;;;;;;;;5.99;100.00;102111.84;2609957;36;19969;-55
2022/05/02 05:43:33;;;;;;;;;;;;;;;6.03;100.00;102121.44;2610202;31;20453;-52
2022/05/02 05:46:09;;;;;;;;;;;;;;;6.08;100.00;102114.94;2609556;36;20527;-50
2022/05/02 05:48:44;;;;;;;;;;;;;;;6.16;100.00;102119.03;2610099;36;19950;-49
2022/05/02 05:51:22;;;;;;;;;;;;;;;6.27;100.00;102122.91;2611237;36;19954;-53
2022/05/02 05:53:57;;;;;;;;;;;;;;;6.51;100.00;102119.94;2610871;36;19947;-50
2022/05/02 05:56:32;;;;;;;;;;;;;;;6.76;100.00;102118.66;2611187;36;20050;-50
2022/05/02 05:59:10;;;;;;;;;;;;;;;6.78;100.00;102120.28;2610493;36;19984;-48
2022/05/02 06:01:54;;;;;;;;;;;;;;;6.95;100.00;102110.50;2610929;36;19946;-49
2022/05/02 06:04:23;;;;;;;;;;;;;;;7.05;100.00;102110.88;2610537;31;19954;-49
2022/05/02 06:06:56;;;;;;;;;;;;;;;7.15;100.00;102112.13;2609947;36;19958;-48
2022/05/02 06:09:26;;;;;;;;;;;;;;;7.30;100.00;102111.31;2610719;31;19947;-50
2022/05/02 06:11:55;;;;;;;;;;;;;;;7.72;100.00;102111.66;2611121;36;20042;-52
2022/05/02 06:14:24;;;;;;;;;;;;;;;7.89;100.00;102110.69;2610585;36;19965;-49
2022/05/02 06:19:34;;;;;;;;;;;;;;;8.21;100.00;102107.97;2610839;36;19947;-49
2022/05/02 06:22:06;;;;;;;;;;;;;;;8.25;100.00;102105.00;2610780;36;19946;-53
2022/05/02 06:24:35;;;;;;;;;;;;;;;8.29;100.00;102111.09;2610712;36;19963;-53
2022/05/02 06:27:04;;;;;;;;;;;;;;;8.71;100.00;102106.78;2610255;36;19978;-53
2022/05/02 06:29:32;;;;;;;;;;;;;;;8.89;100.00;102103.94;2610866;36;20376;-49
2022/05/02 06:32:01;;;;;;;;;;;;;;;9.02;100.00;102107.59;2610214;36;20038;-53
2022/05/02 06:34:32;;;;;;;;;;;;;;;9.11;100.00;102108.84;2610150;31;19950;-49
2022/05/02 06:37:18;;;;;;;;;;;;;;;9.39;100.00;102105.31;2611139;36;20406;-54
2022/05/02 06:39:58;;;;;;;;;;;;;;;9.61;100.00;102101.22;2609897;36;19969;-49
2022/05/02 06:42:31;;;;;;;;;;;;;;;9.53;100.00;102103.56;2610649;36;19961;-50
2022/05/02 06:45:09;;;;;;;;;;;;;;;9.72;100.00;102108.59;2611379;36;20560;-56
2022/05/02 06:47:41;;;;;;;;;;;;;;;9.74;100.00;102101.28;2611891;36;20229;-52
2022/05/02 06:50:09;;;;;;;;;;;;;;;9.85;100.00;102106.84;2611069;36;20042;-53
2022/05/02 06:52:42;;;;;;;;;;;;;;;10.19;100.00;102101.91;2611450;36;19950;-51
2022/05/02 06:55:14;;;;;;;;;;;;;;;10.25;100.00;102103.31;2611104;36;19950;-52
2022/05/02 06:57:47;;;;;;;;;;;;;;;10.58;100.00;102092.09;2610696;36;19969;-50
2022/05/02 07:00:19;;;;;;;;;;;;;;;10.60;100.00;102087.50;2611887;36;20422;-53
2022/05/02 07:03:05;;;;;;;;;;;;;;;10.77;100.00;102096.22;2612207;31;20034;-50
2022/05/02 07:05:39;;;;;;;;;;;;;;;10.85;100.00;102096.53;2602044;36;19955;-49
2022/05/02 07:08:10;;;;;;;;;;;;;;;11.06;100.00;102088.78;2610306;31;19969;-56
2022/05/02 07:10:39;;;;;;;;;;;;;;;11.12;100.00;102091.03;2610297;36;19968;-49
2022/05/02 07:13:19;;;;;;;;;;;;;;;11.53;100.00;102095.28;2610640;36;19968;-53
2022/05/02 07:15:48;;;;;;;;;;;;;;;11.48;100.00;102093.88;2610212;36;19946;-55
2022/05/02 07:18:26;;;;;;;;;;;;;;;11.74;100.00;102095.53;2606069;36;20413;-50
2022/05/02 07:20:57;;;;;;;;;;;;;;;11.53;100.00;102089.03;2608260;36;19989;-52
2022/05/02 07:23:37;;;;;;;;;;;;;;;11.57;100.00;102094.06;2608343;36;19954;-52
2022/05/02 07:26:08;;;;;;;;;;;;;;;11.68;100.00;102093.28;2609092;36;20410;-51
2022/05/02 07:28:38;;;;;;;;;;;;;;;12.01;100.00;102090.91;2610049;36;19950;-55
2022/05/02 07:31:07;;;;;;;;;;;;;;;12.16;100.00;102087.06;2608738;36;20450;-52
2022/05/02 07:33:38;;;;;;;;;;;;;;;11.95;100.00;102088.69;2609083;36;20499;-50
2022/05/02 07:36:07;;;;;;;;;;;;;;;12.18;100.00;102090.50;2609084;36;19950;-56
2022/05/02 07:38:38;;;;;;;;;;;;;;;12.31;100.00;102092.25;2609562;36;20291;-51
2022/05/02 07:43:50;;;;;;;;;;;;;;;12.56;100.00;102092.09;2611039;36;19993;-49
2022/05/02 07:46:21;;;;;;;;;;;;;;;12.55;100.00;102093.06;2609757;36;20396;-50
2022/05/02 07:48:50;;;;;;;;;;;;;;;12.59;100.00;102099.97;2609562;31;20103;-49
2022/05/02 07:51:20;;;;;;;;;;;;;;;12.74;100.00;102092.50;2609221;36;19946;-51
2022/05/02 07:53:52;;;;;;;;;;;;;;;12.39;100.00;102092.53;2609962;31;20046;-54
2022/05/02 07:56:23;;;;;;;;;;;;;;;12.56;100.00;102094.81;2610045;36;20033;-48
2022/05/02 07:58:53;;;;;;;;;;;;;;;12.76;100.00;102098.66;2610224;36;20119;-48
2022/05/02 08:01:22;;;;;;;;;;;;;;;12.85;100.00;102098.91;2610310;36;19946;-50
2022/05/02 08:03:50;;;;;;;;;;;;;;;12.80;100.00;102101.97;2610138;36;20092;-54
2022/05/02 08:06:25;;;;;;;;;;;;;;;12.91;100.00;102099.31;2609983;36;20324;-50
2022/05/02 08:09:00;;;;;;;;;;;;;;;12.89;100.00;102098.53;2604712;31;20313;-50
2022/05/02 08:11:32;;;;;;;;;;;;;;;13.01;100.00;102095.88;2611023;36;19953;-49
2022/05/02 08:14:05;;;;;;;;;;;;;;;12.85;100.00;102096.22;2610956;36;20435;-49
2022/05/02 08:16:35;;;;;;;;;;;;;;;13.24;100.00;102089.47;2610705;36;19972;-50
2022/05/02 08:19:11;;;;;;;;;;;;;;;13.59;100.00;102102.03;2610823;36;19950;-56
2022/05/02 08:21:43;;;;;;;;;;;;;;;13.69;100.00;102093.16;2610834;36;19946;-49
2022/05/02 08:27:19;;;;;;;;;;;;;;;13.79;100.00;102100.38;2610842;36;19950;-53
2022/05/02 08:29:51;;;;;;;;;;;;;;;14.19;100.00;102093.47;2610595;36;20041;-51
2022/05/02 08:32:24;;;;;;;;;;;;;;;14.13;100.00;102091.28;2610654;36;20416;-55
2022/05/02 08:35:00;;;;;;;;;;;;;;;14.24;100.00;102107.50;2610740;36;19947;-51
2022/05/02 08:37:35;;;;;;;;;;;;;;;14.18;99.23;102099.91;2610640;31;19969;-52
2022/05/02 08:40:10;;;;;;;;;;;;;;;14.57;99.54;102097.47;2610816;36;19977;-55
2022/05/02 08:42:59;;;;;;;;;;;;;;;14.37;72.92;102100.03;2610921;31;19946;-54
2022/05/02 08:45:41;;;;;;;;;;;;;;;14.28;85.08;102087.28;2610490;36;20545;-54
2022/05/02 08:48:38;;;;;;;;;;;;;;;14.39;97.00;102085.53;2610913;36;19951;-51
2022/05/02 08:51:21;;;;;;;;;;;;;;;14.64;83.56;102084.31;2610463;36;20478;-54
2022/05/02 08:54:05;;;;;;;;;;;;;;;14.50;73.62;102090.84;2610433;36;19946;-48
2022/05/02 08:56:44;;;;;;;;;;;;;;;14.85;93.81;102076.97;2610876;36;19958;-51
2022/05/02 08:59:25;;;;;;;;;;;;;;;14.51;76.47;102079.88;2610952;36;20360;-48
2022/05/02 09:02:19;;;;;;;;;;;;;;;14.54;69.29;102081.47;2610302;36;19985;-56
2022/05/02 09:05:16;;;;;;;;;;;;;;;14.98;67.50;102071.34;2610786;36;19946;-55
2022/05/02 09:07:57;;;;;;;;;;;;;;;15.36;64.17;102068.94;2610563;36;19951;-50
2022/05/02 09:10:33;;;;;;;;;;;;;;;15.69;63.75;102075.03;2610395;36;20069;-55
2022/05/02 09:13:18;;;;;;;;;;;;;;;15.71;59.09;102068.47;2610754;36;19947;-49
2022/05/02 09:16:02;;;;;;;;;;;;;;;15.93;61.18;102066.53;2610377;36;19954;-49
2022/05/02 09:18:47;;;;;;;;;;;;;;;16.01;63.66;102066.66;2609437;36;20464;-52
2022/05/02 09:21:25;;;;;;;;;;;;;;;16.25;62.26;102078.94;2610404;36;20597;-50
2022/05/02 09:24:20;;;;;;;;;;;;;;;15.69;64.69;102070.44;2610405;31;19969;-49
2022/05/02 09:27:03;;;;;;;;;;;;;;;15.80;70.90;102066.78;2610380;36;20521;-48
2022/05/02 09:29:46;;;;;;;;;;;;;;;15.88;61.03;102063.38;2610895;36;20297;-54
2022/05/02 09:32:19;;;;;;;;;;;;;;;15.87;64.13;102061.63;2611141;36;19951;-49
2022/05/02 09:34:48;;;;;;;;;;;;;;;16.08;61.27;102058.81;2609720;36;19973;-51
2022/05/02 09:37:24;;;;;;;;;;;;;;;16.09;58.90;102060.50;2610682;31;19968;-52
2022/05/02 09:39:55;;;;;;;;;;;;;;;15.97;57.64;102059.78;2610280;36;20448;-50
2022/05/02 09:42:29;;;;;;;;;;;;;;;16.23;55.04;102061.94;2608199;36;19954;-50
2022/05/02 09:50:40;;;;;;;;;;;;;;;16.22;52.87;102050.19;2611271;36;19982;-50
2022/05/02 09:53:18;;;;;;;;;;;;;;;16.56;53.17;102051.59;2609208;36;19966;-49
2022/05/02 09:58:36;;;;;;;;;;;;;;;16.45;51.94;102045.31;2610101;31;20503;-50
2022/05/02 10:01:11;;;;;;;;;;;;;;;16.53;53.36;102050.00;2610227;31;20037;-50
2022/05/02 10:03:40;;;;;;;;;;;;;;;16.40;50.72;102047.63;2610403;36;19950;-49
2022/05/02 10:06:13;;;;;;;;;;;;;;;16.53;52.10;102036.44;2609886;36;20093;-53
2022/05/02 10:08:50;;;;;;;;;;;;;;;16.59;51.67;102040.44;2603227;36;19996;-54
2022/05/02 10:11:36;;;;;;;;;;;;;;;17.05;52.21;102040.59;2610394;36;19946;-54
2022/05/02 10:14:14;;;;;;;;;;;;;;;16.94;49.94;102036.19;2609812;36;20593;-49
2022/05/02 10:16:50;;;;;;;;;;;;;;;16.67;48.84;102046.00;2610495;36;20554;-50
2022/05/02 10:19:22;;;;;;;;;;;;;;;17.19;49.20;102036.53;2610175;36;20450;-52
2022/05/02 10:22:03;;;;;;;;;;;;;;;17.25;49.43;102030.47;2610512;31;19947;-49
2022/05/02 10:24:48;;;;;;;;;;;;;;;16.81;46.85;102031.94;2610146;36;19950;-52
2022/05/02 10:27:25;;;;;;;;;;;;;;;16.87;49.25;102035.06;2608829;36;20349;-49
2022/05/02 10:30:05;;;;;;;;;;;;;;;16.88;48.84;102031.38;2610527;36;19957;-50
2022/05/02 10:32:39;;;;;;;;;;;;;;;16.72;48.11;102030.09;2610922;36;19970;-52
2022/05/02 10:35:12;;;;;;;;;;;;;;;16.43;47.51;102025.59;2610870;36;19950;-49
2022/05/02 10:37:42;;;;;;;;;;;;;;;16.98;48.54;102026.75;2610860;36;19950;-54
2022/05/02 10:40:14;;;;;;;;;;;;;;;16.59;47.59;102030.44;2609708;36;19946;-52
2022/05/02 10:42:48;;;;;;;;;;;;;;;16.79;48.72;102024.94;2611769;36;20380;-52
2022/05/02 10:45:17;;;;;;;;;;;;;;;17.03;51.73;102021.69;2611095;36;19947;-50
2022/05/02 10:47:47;;;;;;;;;;;;;;;17.40;48.67;102017.22;2610399;31;20049;-54
2022/05/02 10:50:19;;;;;;;;;;;;;;;17.29;48.38;102018.28;2610920;36;19950;-51
2022/05/02 10:52:53;;;;;;;;;;;;;;;17.34;47.80;102024.13;2611762;36;20474;-53
2022/05/02 10:55:27;;;;;;;;;;;;;;;17.41;49.83;102019.78;2610986;36;19947;-55
2022/05/02 10:57:56;;;;;;;;;;;;;;;17.20;49.03;102008.31;2611058;36;20034;-52
2022/05/02 11:00:24;;;;;;;;;;;;;;;17.14;48.99;102007.91;2609932;36;19976;-53
2022/05/02 11:03:15;;;;;;;;;;;;;;;17.25;48.68;102003.28;2610196;36;19974;-51
2022/05/02 11:05:46;;;;;;;;;;;;;;;17.57;49.95;102001.94;2608275;36;20037;-54
2022/05/02 11:08:21;;;;;;;;;;;;;;;17.84;46.53;101999.13;2609936;36;20231;-53
2022/05/02 11:10:54;;;;;;;;;;;;;;;18.25;46.98;102000.50;2610167;36;20042;-51
2022/05/02 11:13:26;;;;;;;;;;;;;;;18.22;45.32;101996.22;2610444;36;20089;-50
2022/05/02 11:16:02;;;;;;;;;;;;;;;17.56;46.90;102001.06;2609740;31;19963;-52
2022/05/02 11:21:24;;;;;;;;;;;;;;;17.41;49.90;101997.16;2610489;36;20479;-49
2022/05/02 11:24:07;;;;;;;;;;;;;;;17.41;49.70;101995.28;2608739;36;20043;-50
2022/05/02 11:26:45;;;;;;;;;;;;;;;17.61;48.93;101997.88;2610379;31;19947;-52
2022/05/02 11:29:21;;;;;;;;;;;;;;;17.96;49.05;101983.44;2610263;36;19946;-51
2022/05/02 11:31:54;;;;;;;;;;;;;;;18.07;48.22;101993.22;2609806;36;19946;-50
2022/05/02 11:34:29;;;;;;;;;;;;;;;17.89;46.72;101987.78;2608701;36;19984;-49
2022/05/02 11:36:58;;;;;;;;;;;;;;;18.02;46.53;101981.94;2609371;36;20030;-49
2022/05/02 11:39:31;;;;;;;;;;;;;;;17.88;48.17;101987.94;2609359;36;20290;-50
2022/05/02 11:42:07;;;;;;;;;;;;;;;18.23;49.59;101989.78;2609021;36;20000;-55
2022/05/02 11:44:39;;;;;;;;;;;;;;;18.27;49.42;101983.00;2608397;36;19958;-51
2022/05/02 11:47:10;;;;;;;;;;;;;;;18.45;45.97;101985.66;2609794;36;19954;-55
2022/05/02 11:49:50;;;;;;;;;;;;;;;18.57;45.77;101969.88;2609229;36;20394;-52
2022/05/02 11:52:31;;;;;;;;;;;;;;;18.93;47.18;101982.53;2608715;36;20049;-52
2022/05/02 11:54:59;;;;;;;;;;;;;;;19.30;46.22;101978.56;2609605;36;20029;-52
2022/05/02 11:57:37;;;;;;;;;;;;;;;18.41;46.56;101986.16;2607085;36;20621;-50
2022/05/02 12:00:07;;;;;;;;;;;;;;;17.94;46.01;101980.00;2608302;36;19951;-53
2022/05/02 12:02:48;;;;;;;;;;;;;;;17.96;46.59;101974.41;2610134;36;19951;-53
2022/05/02 12:05:23;;;;;;;;;;;;;;;18.33;47.09;101971.44;2608865;36;19954;-54
2022/05/02 12:07:53;;;;;;;;;;;;;;;18.50;46.96;101969.66;2609320;36;19946;-51
2022/05/02 12:10:22;;;;;;;;;;;;;;;18.96;44.07;101963.94;2609195;36;19973;-48
2022/05/02 12:12:53;;;;;;;;;;;;;;;18.81;44.32;101960.97;2610009;36;20378;-52
2022/05/02 12:15:21;;;;;;;;;;;;;;;19.13;43.38;101967.59;2609945;36;20053;-56
2022/05/02 12:17:53;;;;;;;;;;;;;;;19.16;45.24;101956.34;2603855;36;20053;-53
2022/05/02 12:20:25;;;;;;;;;;;;;;;19.56;44.56;101962.91;2609913;36;19989;-54
2022/05/02 12:22:56;;;;;;;;;;;;;;;18.21;47.35;101954.50;2610061;36;20460;-52
2022/05/02 12:25:26;;;;;;;;;;;;;;;18.79;45.50;101954.84;2603833;36;19946;-54
2022/05/02 12:27:57;;;;;;;;;;;;;;;19.11;45.76;101953.28;2609335;36;19954;-55
2022/05/02 12:30:26;;;;;;;;;;;;;;;19.14;46.36;101952.94;2608341;36;20495;-55
2022/05/02 12:32:55;;;;;;;;;;;;;;;19.34;44.15;101947.19;2608795;36;19968;-53
2022/05/02 12:35:24;;;;;;;;;;;;;;;18.78;42.90;101946.81;2608226;36;20664;-54
2022/05/02 12:37:53;;;;;;;;;;;;;;;19.07;42.96;101951.91;2609136;36;19951;-53
2022/05/02 12:40:26;;;;;;;;;;;;;;;19.70;44.25;101947.75;2611038;36;19950;-53
2022/05/02 12:42:58;;;;;;;;;;;;;;;19.85;44.99;101955.31;2608798;36;19966;-54
2022/05/02 12:45:26;;;;;;;;;;;;;;;20.04;43.48;101941.28;2609376;31;19946;-53
2022/05/02 12:47:55;;;;;;;;;;;;;;;20.21;43.74;101944.84;2610421;36;19984;-54
2022/05/02 12:50:25;;;;;;;;;;;;;;;19.70;43.97;101949.63;2610165;36;19950;-57
2022/05/02 12:52:55;;;;;;;;;;;;;;;19.81;44.83;101949.31;2610202;36;20462;-51
2022/05/02 12:55:24;;;;;;;;;;;;;;;19.72;44.24;101953.03;2610106;36;19953;-55
2022/05/02 13:00:37;;;;;;;;;;;;;;;20.09;43.14;101938.03;2610664;36;19950;-53
2022/05/02 13:03:17;;;;;;;;;;;;;;;20.44;42.48;101928.56;2609865;36;20038;-51
2022/05/02 13:05:53;;;;;;;;;;;;;;;20.66;43.15;101931.59;2609344;36;19946;-52
2022/05/02 13:08:22;;;;;;;;;;;;;;;20.16;41.05;101936.31;2609749;36;19992;-51
2022/05/02 13:10:52;;;;;;;;;;;;;;;20.45;42.34;101924.81;2608755;36;19947;-53
2022/05/02 13:13:20;;;;;;;;;;;;;;;20.02;42.41;101926.94;2609302;36;20460;-53
2022/05/02 13:15:53;;;;;;;;;;;;;;;20.43;42.22;101931.47;2608929;31;20541;-53
2022/05/02 13:18:22;;;;;;;;;;;;;;;20.02;41.87;101918.72;2610383;36;20053;-52
2022/05/02 13:20:59;;;;;;;;;;;;;;;19.78;43.82;101919.63;2604411;36;19950;-55
2022/05/02 13:23:37;;;;;;;;;;;;;;;20.12;42.91;101918.56;2608596;36;19954;-51
2022/05/02 13:26:20;;;;;;;;;;;;;;;20.38;42.02;101914.75;2603662;36;19950;-54
2022/05/02 13:28:54;;;;;;;;;;;;;;;19.87;42.41;101920.47;2602130;36;20637;-51
2022/05/02 13:31:28;;;;;;;;;;;;;;;20.49;41.31;101925.28;2610017;36;20097;-55